sensor_id;sensor_type;location;lat;lon;timestamp;P1;durP1;ratioP1;P2;durP2;ratioP2
13419;SDS011;6781;58.440;15.470;2023-09-30T00:01:02;9.95;;;3.13;;
13419;SDS011;6781;58.440;15.470;2023-09-30T00:03:29;10.60;;;3.60;;
13419;SDS011;6781;58.440;15.470;2023-09-30T00:05:56;7.10;;;2.72;;
13419;SDS011;6781;58.440;15.470;2023-09-30T00:08:23;8.95;;;3.33;;
13419;SDS011;6781;58.440;15.470;2023-09-30T00:10:50;8.13;;;3.38;;
13419;SDS011;6781;58.440;15.470;2023-09-30T00:13:18;8.55;;;3.13;;
13419;SDS011;6781;58.440;15.470;2023-09-30T00:15:45;16.85;;;3.78;;
13419;SDS011;6781;58.440;15.470;2023-09-30T00:18:14;9.27;;;3.58;;
13419;SDS011;6781;58.440;15.470;2023-09-30T00:20:41;12.23;;;4.05;;
13419;SDS011;6781;58.440;15.470;2023-09-30T00:23:08;10.43;;;3.47;;
13419;SDS011;6781;58.440;15.470;2023-09-30T00:25:35;11.98;;;3.75;;
13419;SDS011;6781;58.440;15.470;2023-09-30T00:28:02;12.43;;;3.55;;
13419;SDS011;6781;58.440;15.470;2023-09-30T00:30:29;12.35;;;3.35;;
13419;SDS011;6781;58.440;15.470;2023-09-30T00:32:56;13.13;;;3.90;;
13419;SDS011;6781;58.440;15.470;2023-09-30T00:35:24;12.32;;;3.90;;
13419;SDS011;6781;58.440;15.470;2023-09-30T00:37:51;11.65;;;4.20;;
13419;SDS011;6781;58.440;15.470;2023-09-30T00:40:18;12.90;;;3.97;;
13419;SDS011;6781;58.440;15.470;2023-09-30T00:42:45;12.15;;;4.10;;
13419;SDS011;6781;58.440;15.470;2023-09-30T00:45:12;10.70;;;3.78;;
13419;SDS011;6781;58.440;15.470;2023-09-30T00:47:39;11.10;;;4.25;;
13419;SDS011;6781;58.440;15.470;2023-09-30T00:50:07;11.38;;;4.28;;
13419;SDS011;6781;58.440;15.470;2023-09-30T00:52:37;10.32;;;4.03;;
13419;SDS011;6781;58.440;15.470;2023-09-30T00:55:05;18.45;;;5.07;;
13419;SDS011;6781;58.440;15.470;2023-09-30T00:57:35;11.20;;;4.35;;
13419;SDS011;6781;58.440;15.470;2023-09-30T01:00:05;16.90;;;4.40;;
13419;SDS011;6781;58.440;15.470;2023-09-30T01:02:33;17.05;;;4.35;;
13419;SDS011;6781;58.440;15.470;2023-09-30T01:05:00;15.40;;;4.10;;
13419;SDS011;6781;58.440;15.470;2023-09-30T01:07:28;11.80;;;3.65;;
13419;SDS011;6781;58.440;15.470;2023-09-30T01:09:56;13.48;;;4.45;;
13419;SDS011;6781;58.440;15.470;2023-09-30T01:12:23;12.65;;;4.75;;
13419;SDS011;6781;58.440;15.470;2023-09-30T01:14:50;11.43;;;4.28;;
13419;SDS011;6781;58.440;15.470;2023-09-30T01:17:17;12.98;;;4.03;;
13419;SDS011;6781;58.440;15.470;2023-09-30T01:19:44;22.08;;;5.00;;
13419;SDS011;6781;58.440;15.470;2023-09-30T01:22:13;9.32;;;3.85;;
13419;SDS011;6781;58.440;15.470;2023-09-30T01:24:40;15.38;;;4.13;;
13419;SDS011;6781;58.440;15.470;2023-09-30T01:27:08;13.18;;;4.47;;
13419;SDS011;6781;58.440;15.470;2023-09-30T01:29:35;14.05;;;4.85;;
13419;SDS011;6781;58.440;15.470;2023-09-30T01:32:03;16.08;;;4.47;;
13419;SDS011;6781;58.440;15.470;2023-09-30T01:34:32;16.33;;;4.53;;
13419;SDS011;6781;58.440;15.470;2023-09-30T01:36:59;19.25;;;4.38;;
13419;SDS011;6781;58.440;15.470;2023-09-30T01:39:28;11.93;;;4.40;;
13419;SDS011;6781;58.440;15.470;2023-09-30T01:41:55;19.48;;;4.88;;
13419;SDS011;6781;58.440;15.470;2023-09-30T01:44:22;11.32;;;3.58;;
13419;SDS011;6781;58.440;15.470;2023-09-30T01:46:49;19.75;;;4.07;;
13419;SDS011;6781;58.440;15.470;2023-09-30T01:49:16;16.80;;;4.38;;
13419;SDS011;6781;58.440;15.470;2023-09-30T01:51:44;13.55;;;4.25;;
13419;SDS011;6781;58.440;15.470;2023-09-30T01:54:11;17.98;;;4.32;;
13419;SDS011;6781;58.440;15.470;2023-09-30T01:56:39;17.42;;;4.63;;
13419;SDS011;6781;58.440;15.470;2023-09-30T01:59:06;13.70;;;4.22;;
13419;SDS011;6781;58.440;15.470;2023-09-30T02:01:33;16.52;;;4.18;;
13419;SDS011;6781;58.440;15.470;2023-09-30T02:06:35;10.93;;;3.53;;
13419;SDS011;6781;58.440;15.470;2023-09-30T02:09:02;14.35;;;3.95;;
13419;SDS011;6781;58.440;15.470;2023-09-30T02:11:32;16.67;;;3.88;;
13419;SDS011;6781;58.440;15.470;2023-09-30T02:14:01;9.88;;;4.15;;
13419;SDS011;6781;58.440;15.470;2023-09-30T02:16:28;16.00;;;4.47;;
13419;SDS011;6781;58.440;15.470;2023-09-30T02:18:54;19.90;;;4.25;;
13419;SDS011;6781;58.440;15.470;2023-09-30T02:21:21;15.57;;;4.10;;
13419;SDS011;6781;58.440;15.470;2023-09-30T02:23:48;12.73;;;4.55;;
13419;SDS011;6781;58.440;15.470;2023-09-30T02:26:20;14.98;;;3.42;;
13419;SDS011;6781;58.440;15.470;2023-09-30T02:28:47;14.60;;;3.70;;
13419;SDS011;6781;58.440;15.470;2023-09-30T02:31:15;13.90;;;3.42;;
13419;SDS011;6781;58.440;15.470;2023-09-30T02:33:42;12.10;;;3.65;;
13419;SDS011;6781;58.440;15.470;2023-09-30T02:36:10;15.00;;;3.92;;
13419;SDS011;6781;58.440;15.470;2023-09-30T02:38:38;20.80;;;4.05;;
13419;SDS011;6781;58.440;15.470;2023-09-30T02:41:05;10.90;;;3.50;;
13419;SDS011;6781;58.440;15.470;2023-09-30T02:43:32;13.07;;;3.67;;
13419;SDS011;6781;58.440;15.470;2023-09-30T02:45:59;11.32;;;3.60;;
13419;SDS011;6781;58.440;15.470;2023-09-30T02:48:28;16.95;;;4.10;;
13419;SDS011;6781;58.440;15.470;2023-09-30T02:50:56;11.38;;;3.65;;
13419;SDS011;6781;58.440;15.470;2023-09-30T02:53:22;12.10;;;3.42;;
13419;SDS011;6781;58.440;15.470;2023-09-30T02:55:49;15.65;;;3.88;;
13419;SDS011;6781;58.440;15.470;2023-09-30T02:58:21;13.05;;;3.85;;
13419;SDS011;6781;58.440;15.470;2023-09-30T03:00:48;10.10;;;3.00;;
13419;SDS011;6781;58.440;15.470;2023-09-30T03:03:15;18.92;;;3.72;;
13419;SDS011;6781;58.440;15.470;2023-09-30T03:05:44;17.08;;;3.28;;
13419;SDS011;6781;58.440;15.470;2023-09-30T03:08:12;15.38;;;4.18;;
13419;SDS011;6781;58.440;15.470;2023-09-30T03:10:39;14.88;;;3.90;;
13419;SDS011;6781;58.440;15.470;2023-09-30T03:13:06;17.55;;;3.58;;
13419;SDS011;6781;58.440;15.470;2023-09-30T03:15:34;20.83;;;4.22;;
13419;SDS011;6781;58.440;15.470;2023-09-30T03:18:02;17.88;;;4.00;;
13419;SDS011;6781;58.440;15.470;2023-09-30T03:20:29;16.08;;;3.95;;
13419;SDS011;6781;58.440;15.470;2023-09-30T03:22:58;20.23;;;3.67;;
13419;SDS011;6781;58.440;15.470;2023-09-30T03:25:29;15.30;;;3.53;;
13419;SDS011;6781;58.440;15.470;2023-09-30T03:27:56;11.20;;;3.17;;
13419;SDS011;6781;58.440;15.470;2023-09-30T03:30:23;18.52;;;4.22;;
13419;SDS011;6781;58.440;15.470;2023-09-30T03:32:50;13.88;;;3.55;;
13419;SDS011;6781;58.440;15.470;2023-09-30T03:35:17;19.00;;;3.72;;
13419;SDS011;6781;58.440;15.470;2023-09-30T03:37:44;13.73;;;3.63;;
13419;SDS011;6781;58.440;15.470;2023-09-30T03:40:13;15.35;;;4.00;;
13419;SDS011;6781;58.440;15.470;2023-09-30T03:42:44;11.63;;;3.60;;
13419;SDS011;6781;58.440;15.470;2023-09-30T03:45:14;19.45;;;4.15;;
13419;SDS011;6781;58.440;15.470;2023-09-30T03:47:42;17.05;;;4.03;;
13419;SDS011;6781;58.440;15.470;2023-09-30T03:50:10;15.40;;;4.18;;
13419;SDS011;6781;58.440;15.470;2023-09-30T03:52:40;15.75;;;3.92;;
13419;SDS011;6781;58.440;15.470;2023-09-30T03:55:09;17.50;;;3.97;;
13419;SDS011;6781;58.440;15.470;2023-09-30T03:57:38;16.42;;;4.03;;
13419;SDS011;6781;58.440;15.470;2023-09-30T04:00:06;17.65;;;3.83;;
13419;SDS011;6781;58.440;15.470;2023-09-30T04:02:36;16.52;;;3.55;;
13419;SDS011;6781;58.440;15.470;2023-09-30T04:05:03;17.83;;;3.85;;
13419;SDS011;6781;58.440;15.470;2023-09-30T04:07:31;19.23;;;4.32;;
13419;SDS011;6781;58.440;15.470;2023-09-30T04:10:01;15.63;;;4.40;;
13419;SDS011;6781;58.440;15.470;2023-09-30T04:12:29;16.73;;;4.70;;
13419;SDS011;6781;58.440;15.470;2023-09-30T04:14:59;17.73;;;3.80;;
13419;SDS011;6781;58.440;15.470;2023-09-30T04:17:26;19.10;;;3.88;;
13419;SDS011;6781;58.440;15.470;2023-09-30T04:19:53;16.50;;;3.15;;
13419;SDS011;6781;58.440;15.470;2023-09-30T04:22:20;16.77;;;3.78;;
13419;SDS011;6781;58.440;15.470;2023-09-30T04:24:49;23.02;;;3.72;;
13419;SDS011;6781;58.440;15.470;2023-09-30T04:27:17;19.60;;;4.30;;
13419;SDS011;6781;58.440;15.470;2023-09-30T04:29:43;11.43;;;3.28;;
13419;SDS011;6781;58.440;15.470;2023-09-30T04:32:12;13.10;;;3.80;;
13419;SDS011;6781;58.440;15.470;2023-09-30T04:34:39;22.08;;;4.05;;
13419;SDS011;6781;58.440;15.470;2023-09-30T04:37:06;19.25;;;4.10;;
13419;SDS011;6781;58.440;15.470;2023-09-30T04:39:34;11.40;;;2.88;;
13419;SDS011;6781;58.440;15.470;2023-09-30T04:42:01;11.65;;;3.20;;
13419;SDS011;6781;58.440;15.470;2023-09-30T04:44:29;17.50;;;3.40;;
13419;SDS011;6781;58.440;15.470;2023-09-30T04:46:56;15.13;;;3.70;;
13419;SDS011;6781;58.440;15.470;2023-09-30T04:49:24;19.88;;;3.65;;
13419;SDS011;6781;58.440;15.470;2023-09-30T04:51:51;19.65;;;3.58;;
13419;SDS011;6781;58.440;15.470;2023-09-30T04:54:18;17.98;;;3.80;;
13419;SDS011;6781;58.440;15.470;2023-09-30T04:56:46;18.05;;;4.05;;
13419;SDS011;6781;58.440;15.470;2023-09-30T04:59:13;22.45;;;3.85;;
13419;SDS011;6781;58.440;15.470;2023-09-30T05:01:40;14.48;;;3.70;;
13419;SDS011;6781;58.440;15.470;2023-09-30T05:04:07;14.40;;;3.65;;
13419;SDS011;6781;58.440;15.470;2023-09-30T05:06:35;16.70;;;3.95;;
13419;SDS011;6781;58.440;15.470;2023-09-30T05:09:02;18.98;;;3.67;;
13419;SDS011;6781;58.440;15.470;2023-09-30T05:11:30;18.05;;;3.55;;
13419;SDS011;6781;58.440;15.470;2023-09-30T05:13:57;12.77;;;3.55;;
13419;SDS011;6781;58.440;15.470;2023-09-30T05:16:24;16.45;;;3.08;;
13419;SDS011;6781;58.440;15.470;2023-09-30T05:18:52;14.10;;;3.22;;
13419;SDS011;6781;58.440;15.470;2023-09-30T05:21:19;12.95;;;3.45;;
13419;SDS011;6781;58.440;15.470;2023-09-30T05:23:48;13.98;;;3.10;;
13419;SDS011;6781;58.440;15.470;2023-09-30T05:26:15;15.93;;;3.85;;
13419;SDS011;6781;58.440;15.470;2023-09-30T05:28:43;12.63;;;3.22;;
13419;SDS011;6781;58.440;15.470;2023-09-30T05:31:10;14.00;;;3.65;;
13419;SDS011;6781;58.440;15.470;2023-09-30T05:33:37;13.70;;;3.53;;
13419;SDS011;6781;58.440;15.470;2023-09-30T05:36:04;18.33;;;3.15;;
13419;SDS011;6781;58.440;15.470;2023-09-30T05:38:31;18.02;;;3.55;;
13419;SDS011;6781;58.440;15.470;2023-09-30T05:40:59;14.25;;;3.95;;
13419;SDS011;6781;58.440;15.470;2023-09-30T05:43:27;17.55;;;3.60;;
13419;SDS011;6781;58.440;15.470;2023-09-30T05:45:54;15.45;;;3.80;;
13419;SDS011;6781;58.440;15.470;2023-09-30T05:48:22;12.50;;;2.90;;
13419;SDS011;6781;58.440;15.470;2023-09-30T05:50:48;16.55;;;3.60;;
13419;SDS011;6781;58.440;15.470;2023-09-30T05:53:15;12.80;;;3.30;;
13419;SDS011;6781;58.440;15.470;2023-09-30T05:55:45;12.00;;;2.72;;
13419;SDS011;6781;58.440;15.470;2023-09-30T05:58:14;14.93;;;3.55;;
13419;SDS011;6781;58.440;15.470;2023-09-30T06:00:41;22.80;;;4.32;;
13419;SDS011;6781;58.440;15.470;2023-09-30T06:03:08;12.32;;;3.47;;
13419;SDS011;6781;58.440;15.470;2023-09-30T06:05:38;16.58;;;3.47;;
13419;SDS011;6781;58.440;15.470;2023-09-30T06:08:07;18.58;;;4.07;;
13419;SDS011;6781;58.440;15.470;2023-09-30T06:10:35;18.88;;;3.47;;
13419;SDS011;6781;58.440;15.470;2023-09-30T06:13:03;18.40;;;3.85;;
13419;SDS011;6781;58.440;15.470;2023-09-30T06:15:32;13.13;;;3.42;;
13419;SDS011;6781;58.440;15.470;2023-09-30T06:17:59;16.58;;;4.28;;
13419;SDS011;6781;58.440;15.470;2023-09-30T06:20:26;17.77;;;4.18;;
13419;SDS011;6781;58.440;15.470;2023-09-30T06:22:55;14.43;;;3.10;;
13419;SDS011;6781;58.440;15.470;2023-09-30T06:25:23;17.42;;;3.70;;
13419;SDS011;6781;58.440;15.470;2023-09-30T06:27:50;17.77;;;3.80;;
13419;SDS011;6781;58.440;15.470;2023-09-30T06:30:17;12.88;;;3.22;;
13419;SDS011;6781;58.440;15.470;2023-09-30T06:32:47;17.92;;;3.72;;
13419;SDS011;6781;58.440;15.470;2023-09-30T06:35:14;14.40;;;3.28;;
13419;SDS011;6781;58.440;15.470;2023-09-30T06:37:42;18.02;;;4.03;;
13419;SDS011;6781;58.440;15.470;2023-09-30T06:40:10;12.77;;;3.53;;
13419;SDS011;6781;58.440;15.470;2023-09-30T06:42:38;15.93;;;3.80;;
13419;SDS011;6781;58.440;15.470;2023-09-30T06:45:06;15.00;;;3.58;;
13419;SDS011;6781;58.440;15.470;2023-09-30T06:47:35;17.00;;;3.53;;
13419;SDS011;6781;58.440;15.470;2023-09-30T06:50:08;21.23;;;4.13;;
13419;SDS011;6781;58.440;15.470;2023-09-30T06:52:37;13.98;;;3.72;;
13419;SDS011;6781;58.440;15.470;2023-09-30T06:55:05;14.30;;;3.58;;
13419;SDS011;6781;58.440;15.470;2023-09-30T06:57:33;13.55;;;3.05;;
13419;SDS011;6781;58.440;15.470;2023-09-30T07:00:01;13.77;;;3.08;;
13419;SDS011;6781;58.440;15.470;2023-09-30T07:02:33;12.80;;;2.85;;
13419;SDS011;6781;58.440;15.470;2023-09-30T07:05:01;13.73;;;3.28;;
13419;SDS011;6781;58.440;15.470;2023-09-30T07:07:31;15.77;;;3.80;;
13419;SDS011;6781;58.440;15.470;2023-09-30T07:09:58;14.70;;;3.42;;
13419;SDS011;6781;58.440;15.470;2023-09-30T07:12:25;13.68;;;3.75;;
13419;SDS011;6781;58.440;15.470;2023-09-30T07:14:52;14.07;;;3.03;;
13419;SDS011;6781;58.440;15.470;2023-09-30T07:17:19;13.52;;;3.40;;
13419;SDS011;6781;58.440;15.470;2023-09-30T07:19:46;11.52;;;2.92;;
13419;SDS011;6781;58.440;15.470;2023-09-30T07:22:14;12.00;;;3.00;;
13419;SDS011;6781;58.440;15.470;2023-09-30T07:24:42;10.63;;;3.15;;
13419;SDS011;6781;58.440;15.470;2023-09-30T07:27:09;18.63;;;3.75;;
13419;SDS011;6781;58.440;15.470;2023-09-30T07:29:36;13.95;;;3.45;;
13419;SDS011;6781;58.440;15.470;2023-09-30T07:32:03;12.48;;;2.92;;
13419;SDS011;6781;58.440;15.470;2023-09-30T07:34:32;12.82;;;2.75;;
13419;SDS011;6781;58.440;15.470;2023-09-30T07:36:59;11.18;;;2.90;;
13419;SDS011;6781;58.440;15.470;2023-09-30T07:39:26;10.30;;;2.90;;
13419;SDS011;6781;58.440;15.470;2023-09-30T07:41:54;8.65;;;2.60;;
13419;SDS011;6781;58.440;15.470;2023-09-30T07:44:21;13.07;;;2.78;;
13419;SDS011;6781;58.440;15.470;2023-09-30T07:46:51;9.90;;;2.90;;
13419;SDS011;6781;58.440;15.470;2023-09-30T07:49:18;6.90;;;2.58;;
13419;SDS011;6781;58.440;15.470;2023-09-30T07:51:45;10.20;;;2.80;;
13419;SDS011;6781;58.440;15.470;2023-09-30T07:54:12;11.18;;;2.92;;
13419;SDS011;6781;58.440;15.470;2023-09-30T07:56:39;8.48;;;2.60;;
13419;SDS011;6781;58.440;15.470;2023-09-30T07:59:08;12.73;;;3.35;;
13419;SDS011;6781;58.440;15.470;2023-09-30T08:01:35;9.05;;;2.58;;
13419;SDS011;6781;58.440;15.470;2023-09-30T08:04:02;10.50;;;2.35;;
13419;SDS011;6781;58.440;15.470;2023-09-30T08:06:32;16.90;;;3.13;;
13419;SDS011;6781;58.440;15.470;2023-09-30T08:09:01;10.82;;;2.20;;
13419;SDS011;6781;58.440;15.470;2023-09-30T08:11:35;12.50;;;2.80;;
13419;SDS011;6781;58.440;15.470;2023-09-30T08:14:02;7.50;;;1.90;;
13419;SDS011;6781;58.440;15.470;2023-09-30T08:16:33;8.07;;;2.10;;
13419;SDS011;6781;58.440;15.470;2023-09-30T08:19:02;11.43;;;2.17;;
13419;SDS011;6781;58.440;15.470;2023-09-30T08:21:29;7.03;;;2.03;;
13419;SDS011;6781;58.440;15.470;2023-09-30T08:23:56;11.65;;;2.38;;
13419;SDS011;6781;58.440;15.470;2023-09-30T08:26:26;6.22;;;2.00;;
13419;SDS011;6781;58.440;15.470;2023-09-30T08:28:53;11.55;;;2.63;;
13419;SDS011;6781;58.440;15.470;2023-09-30T08:31:20;11.90;;;1.98;;
13419;SDS011;6781;58.440;15.470;2023-09-30T08:33:50;8.98;;;1.90;;
13419;SDS011;6781;58.440;15.470;2023-09-30T08:36:17;8.88;;;1.80;;
13419;SDS011;6781;58.440;15.470;2023-09-30T08:38:44;6.97;;;1.70;;
13419;SDS011;6781;58.440;15.470;2023-09-30T08:41:11;10.50;;;2.50;;
13419;SDS011;6781;58.440;15.470;2023-09-30T08:43:53;7.35;;;2.08;;
13419;SDS011;6781;58.440;15.470;2023-09-30T08:46:25;9.05;;;1.63;;
13419;SDS011;6781;58.440;15.470;2023-09-30T08:48:57;5.63;;;1.90;;
13419;SDS011;6781;58.440;15.470;2023-09-30T08:51:24;6.40;;;2.00;;
13419;SDS011;6781;58.440;15.470;2023-09-30T08:53:52;6.57;;;2.00;;
13419;SDS011;6781;58.440;15.470;2023-09-30T08:56:20;6.80;;;1.80;;
13419;SDS011;6781;58.440;15.470;2023-09-30T08:58:53;6.50;;;1.67;;
13419;SDS011;6781;58.440;15.470;2023-09-30T09:01:23;8.60;;;2.03;;
13419;SDS011;6781;58.440;15.470;2023-09-30T09:03:51;7.10;;;1.67;;
13419;SDS011;6781;58.440;15.470;2023-09-30T09:06:20;8.55;;;2.05;;
13419;SDS011;6781;58.440;15.470;2023-09-30T09:08:48;10.50;;;1.60;;
13419;SDS011;6781;58.440;15.470;2023-09-30T09:11:15;6.85;;;1.67;;
13419;SDS011;6781;58.440;15.470;2023-09-30T09:13:46;3.72;;;1.42;;
13419;SDS011;6781;58.440;15.470;2023-09-30T09:16:15;6.28;;;1.90;;
13419;SDS011;6781;58.440;15.470;2023-09-30T09:18:44;6.93;;;1.73;;
13419;SDS011;6781;58.440;15.470;2023-09-30T09:21:13;9.32;;;1.95;;
13419;SDS011;6781;58.440;15.470;2023-09-30T09:23:43;9.35;;;2.08;;
13419;SDS011;6781;58.440;15.470;2023-09-30T09:26:11;6.88;;;1.58;;
13419;SDS011;6781;58.440;15.470;2023-09-30T09:28:39;7.50;;;1.90;;
13419;SDS011;6781;58.440;15.470;2023-09-30T09:31:20;5.18;;;2.05;;
13419;SDS011;6781;58.440;15.470;2023-09-30T09:33:48;9.48;;;2.22;;
13419;SDS011;6781;58.440;15.470;2023-09-30T09:36:17;5.13;;;1.45;;
13419;SDS011;6781;58.440;15.470;2023-09-30T09:38:47;6.80;;;1.42;;
13419;SDS011;6781;58.440;15.470;2023-09-30T09:41:18;8.40;;;2.20;;
13419;SDS011;6781;58.440;15.470;2023-09-30T09:43:48;9.20;;;1.80;;
13419;SDS011;6781;58.440;15.470;2023-09-30T09:46:16;6.38;;;2.22;;
13419;SDS011;6781;58.440;15.470;2023-09-30T09:48:45;5.07;;;1.50;;
13419;SDS011;6781;58.440;15.470;2023-09-30T09:51:12;8.93;;;1.88;;
13419;SDS011;6781;58.440;15.470;2023-09-30T09:53:41;11.15;;;2.10;;
13419;SDS011;6781;58.440;15.470;2023-09-30T09:56:10;7.57;;;1.70;;
13419;SDS011;6781;58.440;15.470;2023-09-30T09:58:39;9.30;;;1.55;;
13419;SDS011;6781;58.440;15.470;2023-09-30T10:01:08;8.00;;;1.80;;
13419;SDS011;6781;58.440;15.470;2023-09-30T10:03:37;6.82;;;1.90;;
13419;SDS011;6781;58.440;15.470;2023-09-30T10:06:05;6.68;;;1.80;;
13419;SDS011;6781;58.440;15.470;2023-09-30T10:08:36;4.72;;;1.67;;
13419;SDS011;6781;58.440;15.470;2023-09-30T10:11:07;7.55;;;1.50;;
13419;SDS011;6781;58.440;15.470;2023-09-30T10:13:53;6.45;;;1.60;;
13419;SDS011;6781;58.440;15.470;2023-09-30T10:19:14;10.32;;;1.70;;
13419;SDS011;6781;58.440;15.470;2023-09-30T10:24:44;8.52;;;1.63;;
13419;SDS011;6781;58.440;15.470;2023-09-30T10:30:12;7.25;;;1.70;;
13419;SDS011;6781;58.440;15.470;2023-09-30T10:35:46;9.02;;;1.52;;
13419;SDS011;6781;58.440;15.470;2023-09-30T10:41:03;9.73;;;1.98;;
13419;SDS011;6781;58.440;15.470;2023-09-30T10:43:30;7.85;;;1.98;;
13419;SDS011;6781;58.440;15.470;2023-09-30T10:45:59;7.65;;;1.73;;
13419;SDS011;6781;58.440;15.470;2023-09-30T10:48:35;9.88;;;1.73;;
13419;SDS011;6781;58.440;15.470;2023-09-30T10:51:10;5.80;;;1.83;;
13419;SDS011;6781;58.440;15.470;2023-09-30T10:53:46;6.88;;;1.52;;
13419;SDS011;6781;58.440;15.470;2023-09-30T10:56:14;6.88;;;2.03;;
13419;SDS011;6781;58.440;15.470;2023-09-30T10:58:42;6.53;;;1.52;;
13419;SDS011;6781;58.440;15.470;2023-09-30T11:01:11;11.05;;;1.55;;
13419;SDS011;6781;58.440;15.470;2023-09-30T11:03:39;6.65;;;1.90;;
13419;SDS011;6781;58.440;15.470;2023-09-30T11:06:06;4.80;;;1.30;;
13419;SDS011;6781;58.440;15.470;2023-09-30T11:08:35;6.65;;;1.40;;
13419;SDS011;6781;58.440;15.470;2023-09-30T11:11:03;7.57;;;1.50;;
13419;SDS011;6781;58.440;15.470;2023-09-30T11:13:33;7.93;;;1.90;;
13419;SDS011;6781;58.440;15.470;2023-09-30T11:16:01;6.38;;;1.55;;
13419;SDS011;6781;58.440;15.470;2023-09-30T11:18:31;8.95;;;1.88;;
13419;SDS011;6781;58.440;15.470;2023-09-30T11:21:05;4.05;;;1.33;;
13419;SDS011;6781;58.440;15.470;2023-09-30T11:23:34;6.05;;;1.77;;
13419;SDS011;6781;58.440;15.470;2023-09-30T11:26:02;6.97;;;2.00;;
13419;SDS011;6781;58.440;15.470;2023-09-30T11:28:39;5.15;;;1.50;;
13419;SDS011;6781;58.440;15.470;2023-09-30T11:31:08;5.32;;;1.42;;
13419;SDS011;6781;58.440;15.470;2023-09-30T11:33:54;5.90;;;1.63;;
13419;SDS011;6781;58.440;15.470;2023-09-30T11:36:23;6.15;;;1.90;;
13419;SDS011;6781;58.440;15.470;2023-09-30T11:38:50;7.80;;;2.08;;
13419;SDS011;6781;58.440;15.470;2023-09-30T11:41:19;7.25;;;1.92;;
13419;SDS011;6781;58.440;15.470;2023-09-30T11:44:00;8.63;;;1.77;;
13419;SDS011;6781;58.440;15.470;2023-09-30T11:46:30;6.75;;;1.70;;
13419;SDS011;6781;58.440;15.470;2023-09-30T11:49:00;7.45;;;1.70;;
13419;SDS011;6781;58.440;15.470;2023-09-30T11:51:30;7.35;;;1.80;;
13419;SDS011;6781;58.440;15.470;2023-09-30T11:54:09;5.15;;;1.70;;
13419;SDS011;6781;58.440;15.470;2023-09-30T11:56:36;5.43;;;1.98;;
13419;SDS011;6781;58.440;15.470;2023-09-30T11:59:03;7.18;;;1.63;;
13419;SDS011;6781;58.440;15.470;2023-09-30T12:01:30;8.23;;;1.90;;
13419;SDS011;6781;58.440;15.470;2023-09-30T12:04:00;7.80;;;1.92;;
13419;SDS011;6781;58.440;15.470;2023-09-30T12:06:27;4.80;;;1.40;;
13419;SDS011;6781;58.440;15.470;2023-09-30T12:08:54;8.23;;;1.60;;
13419;SDS011;6781;58.440;15.470;2023-09-30T12:11:22;5.45;;;1.77;;
13419;SDS011;6781;58.440;15.470;2023-09-30T12:13:50;7.63;;;1.50;;
13419;SDS011;6781;58.440;15.470;2023-09-30T12:16:17;8.63;;;1.77;;
13419;SDS011;6781;58.440;15.470;2023-09-30T12:18:44;7.68;;;1.73;;
13419;SDS011;6781;58.440;15.470;2023-09-30T12:21:13;7.35;;;1.65;;
13419;SDS011;6781;58.440;15.470;2023-09-30T12:23:45;7.32;;;2.08;;
13419;SDS011;6781;58.440;15.470;2023-09-30T12:26:13;7.57;;;2.28;;
13419;SDS011;6781;58.440;15.470;2023-09-30T12:28:45;7.40;;;1.98;;
13419;SDS011;6781;58.440;15.470;2023-09-30T12:31:13;7.13;;;1.77;;
13419;SDS011;6781;58.440;15.470;2023-09-30T12:33:40;7.38;;;1.73;;
13419;SDS011;6781;58.440;15.470;2023-09-30T12:36:07;6.88;;;2.03;;
13419;SDS011;6781;58.440;15.470;2023-09-30T12:38:37;7.68;;;1.90;;
13419;SDS011;6781;58.440;15.470;2023-09-30T12:41:04;8.50;;;1.88;;
13419;SDS011;6781;58.440;15.470;2023-09-30T12:43:31;6.28;;;1.60;;
13419;SDS011;6781;58.440;15.470;2023-09-30T12:45:58;8.20;;;1.80;;
13419;SDS011;6781;58.440;15.470;2023-09-30T12:48:25;8.93;;;2.22;;
13419;SDS011;6781;58.440;15.470;2023-09-30T12:50:52;6.45;;;1.73;;
13419;SDS011;6781;58.440;15.470;2023-09-30T12:53:19;5.80;;;2.13;;
13419;SDS011;6781;58.440;15.470;2023-09-30T12:55:48;8.35;;;1.88;;
13419;SDS011;6781;58.440;15.470;2023-09-30T12:58:15;7.20;;;1.88;;
13419;SDS011;6781;58.440;15.470;2023-09-30T13:00:42;2.97;;;1.65;;
13419;SDS011;6781;58.440;15.470;2023-09-30T13:03:09;6.47;;;1.60;;
13419;SDS011;6781;58.440;15.470;2023-09-30T13:05:37;7.55;;;1.98;;
13419;SDS011;6781;58.440;15.470;2023-09-30T13:08:04;4.68;;;1.88;;
13419;SDS011;6781;58.440;15.470;2023-09-30T13:10:32;6.95;;;1.98;;
13419;SDS011;6781;58.440;15.470;2023-09-30T13:13:00;6.15;;;1.83;;
13419;SDS011;6781;58.440;15.470;2023-09-30T13:15:27;8.02;;;2.05;;
13419;SDS011;6781;58.440;15.470;2023-09-30T13:17:54;7.70;;;1.63;;
13419;SDS011;6781;58.440;15.470;2023-09-30T13:20:21;4.90;;;1.65;;
13419;SDS011;6781;58.440;15.470;2023-09-30T13:22:48;5.47;;;1.60;;
13419;SDS011;6781;58.440;15.470;2023-09-30T13:25:15;6.80;;;2.03;;
13419;SDS011;6781;58.440;15.470;2023-09-30T13:27:42;6.53;;;1.65;;
13419;SDS011;6781;58.440;15.470;2023-09-30T13:30:11;4.70;;;1.63;;
13419;SDS011;6781;58.440;15.470;2023-09-30T13:32:38;7.05;;;1.75;;
13419;SDS011;6781;58.440;15.470;2023-09-30T13:35:06;4.72;;;1.75;;
13419;SDS011;6781;58.440;15.470;2023-09-30T13:37:33;6.82;;;1.63;;
13419;SDS011;6781;58.440;15.470;2023-09-30T13:40:02;5.63;;;1.70;;
13419;SDS011;6781;58.440;15.470;2023-09-30T13:42:33;5.30;;;1.77;;
13419;SDS011;6781;58.440;15.470;2023-09-30T13:45:00;5.40;;;2.00;;
13419;SDS011;6781;58.440;15.470;2023-09-30T13:47:30;8.23;;;1.75;;
13419;SDS011;6781;58.440;15.470;2023-09-30T13:49:57;5.35;;;1.58;;
13419;SDS011;6781;58.440;15.470;2023-09-30T13:52:24;4.57;;;1.65;;
13419;SDS011;6781;58.440;15.470;2023-09-30T13:54:51;8.32;;;2.00;;
13419;SDS011;6781;58.440;15.470;2023-09-30T13:57:18;9.80;;;2.22;;
13419;SDS011;6781;58.440;15.470;2023-09-30T13:59:45;9.32;;;1.90;;
13419;SDS011;6781;58.440;15.470;2023-09-30T14:02:12;3.33;;;1.70;;
13419;SDS011;6781;58.440;15.470;2023-09-30T14:04:40;5.30;;;1.65;;
13419;SDS011;6781;58.440;15.470;2023-09-30T14:07:07;4.95;;;1.52;;
13419;SDS011;6781;58.440;15.470;2023-09-30T14:09:34;6.68;;;1.83;;
13419;SDS011;6781;58.440;15.470;2023-09-30T14:12:02;4.97;;;1.58;;
13419;SDS011;6781;58.440;15.470;2023-09-30T14:14:33;5.35;;;1.83;;
13419;SDS011;6781;58.440;15.470;2023-09-30T14:17:01;5.90;;;1.55;;
13419;SDS011;6781;58.440;15.470;2023-09-30T14:19:33;7.10;;;1.63;;
13419;SDS011;6781;58.440;15.470;2023-09-30T14:22:01;4.45;;;1.50;;
13419;SDS011;6781;58.440;15.470;2023-09-30T14:24:31;6.63;;;1.48;;
13419;SDS011;6781;58.440;15.470;2023-09-30T14:26:59;5.43;;;1.58;;
13419;SDS011;6781;58.440;15.470;2023-09-30T14:29:26;4.32;;;1.83;;
13419;SDS011;6781;58.440;15.470;2023-09-30T14:31:54;4.70;;;1.75;;
13419;SDS011;6781;58.440;15.470;2023-09-30T14:34:21;3.28;;;1.55;;
13419;SDS011;6781;58.440;15.470;2023-09-30T14:36:48;8.95;;;1.80;;
13419;SDS011;6781;58.440;15.470;2023-09-30T14:39:17;4.28;;;1.42;;
13419;SDS011;6781;58.440;15.470;2023-09-30T14:41:45;4.70;;;1.88;;
13419;SDS011;6781;58.440;15.470;2023-09-30T14:44:15;8.45;;;2.25;;
13419;SDS011;6781;58.440;15.470;2023-09-30T14:46:42;6.07;;;1.63;;
13419;SDS011;6781;58.440;15.470;2023-09-30T14:49:09;8.52;;;2.00;;
13419;SDS011;6781;58.440;15.470;2023-09-30T14:51:37;6.80;;;1.73;;
13419;SDS011;6781;58.440;15.470;2023-09-30T14:54:04;10.68;;;2.10;;
13419;SDS011;6781;58.440;15.470;2023-09-30T14:56:33;8.32;;;1.80;;
13419;SDS011;6781;58.440;15.470;2023-09-30T14:59:00;5.32;;;1.50;;
13419;SDS011;6781;58.440;15.470;2023-09-30T15:01:27;5.78;;;1.90;;
13419;SDS011;6781;58.440;15.470;2023-09-30T15:03:54;5.75;;;1.85;;